Time;durP1;ratioP1;P1;durP2;ratioP2;P2;SDS_P1;SDS_P2;PMS_P1;PMS_P2;Temp;Humidity;BMP_temperature;BMP_pressure;BME280_temperature;BME280_humidity;BME280_pressure;Samples;Min_cycle;Max_cycle;Signal;HPM_P1;HPM_P2
2023/06/07 00:00:20;;;;;;;;;;;;;;;19.81;51.53;99835.09;5110781;28;20360;-79
2023/06/07 00:02:45;;;;;;;;;;;;;;;19.78;52.36;99833.72;5112410;28;20454;-78
2023/06/07 00:05:12;;;;;;;;;;;;;;;19.78;51.59;99839.06;5112163;28;19912;-78
2023/06/07 00:07:38;;;;;;;;;;;;;;;19.76;52.66;99843.03;5112349;28;19966;-78
2023/06/07 00:10:03;;;;;;;;;;;;;;;19.67;52.39;99846.03;5112498;28;19915;-78
2023/06/07 00:12:28;;;;;;;;;;;;;;;19.65;53.40;99845.44;5110717;28;19916;-78
2023/06/07 00:14:54;;;;;;;;;;;;;;;19.65;51.26;99844.63;5112078;28;19929;-78
2023/06/07 00:17:19;;;;;;;;;;;;;;;19.67;52.33;99843.34;5112076;28;19939;-78
2023/06/07 00:19:45;;;;;;;;;;;;;;;19.64;50.66;99867.94;5112154;28;19912;-77
2023/06/07 00:22:12;;;;;;;;;;;;;;;19.63;50.30;99844.88;5112400;28;19918;-78
2023/06/07 00:24:38;;;;;;;;;;;;;;;19.52;51.29;99834.09;5115951;28;19954;-78
2023/06/07 00:27:03;;;;;;;;;;;;;;;19.46;50.88;99841.19;5116004;28;19912;-78
2023/06/07 00:29:28;;;;;;;;;;;;;;;19.36;50.09;99843.59;5115543;28;19962;-78
2023/06/07 00:31:54;;;;;;;;;;;;;;;19.21;51.83;99837.81;5115571;28;19976;-77
2023/06/07 00:34:19;;;;;;;;;;;;;;;19.07;51.61;99823.78;5115478;28;19916;-77
2023/06/07 00:36:46;;;;;;;;;;;;;;;19.05;51.38;99831.22;5114047;28;19911;-78
2023/06/07 00:39:11;;;;;;;;;;;;;;;19.07;52.32;99823.78;5115407;28;19912;-77
2023/06/07 00:41:36;;;;;;;;;;;;;;;19.13;52.75;99825.56;5115245;28;19918;-79
2023/06/07 00:44:02;;;;;;;;;;;;;;;19.18;52.65;99825.69;5115268;28;19959;-78
2023/06/07 00:46:28;;;;;;;;;;;;;;;19.18;51.13;99820.34;5113996;28;20304;-79
2023/06/07 00:48:54;;;;;;;;;;;;;;;19.16;52.33;99813.59;5115343;28;19920;-79
2023/06/07 00:51:19;;;;;;;;;;;;;;;19.17;52.12;99823.25;5115120;28;19915;-79
2023/06/07 00:53:47;;;;;;;;;;;;;;;19.14;52.62;99821.84;5114789;28;19939;-79
2023/06/07 00:56:13;;;;;;;;;;;;;;;19.18;52.95;99824.88;5115027;28;19918;-79
2023/06/07 00:58:38;;;;;;;;;;;;;;;19.14;51.87;99813.81;5114950;28;19998;-78
2023/06/07 01:01:04;;;;;;;;;;;;;;;19.09;51.55;99810.19;5114952;28;19912;-79
2023/06/07 01:03:30;;;;;;;;;;;;;;;18.94;53.91;99811.41;5113953;28;19916;-79
2023/06/07 01:05:58;;;;;;;;;;;;;;;18.86;52.62;99825.09;5115045;28;19912;-79
2023/06/07 01:08:25;;;;;;;;;;;;;;;18.77;52.74;99825.63;5114853;28;19919;-79
2023/06/07 01:10:51;;;;;;;;;;;;;;;18.72;52.32;99818.28;5114859;28;20335;-79
2023/06/07 01:13:16;;;;;;;;;;;;;;;18.68;52.41;99817.09;5114840;28;19923;-79
2023/06/07 01:15:42;;;;;;;;;;;;;;;18.62;50.90;99823.31;5115225;28;20289;-78
2023/06/07 01:18:09;;;;;;;;;;;;;;;18.45;52.46;99812.34;5113618;28;19984;-79
2023/06/07 01:20:36;;;;;;;;;;;;;;;18.38;52.06;99815.09;5114980;28;19994;-79
2023/06/07 01:23:03;;;;;;;;;;;;;;;18.32;52.90;99817.84;5114880;28;19912;-78
2023/06/07 01:25:29;;;;;;;;;;;;;;;18.35;53.26;99820.88;5113867;28;20277;-79
2023/06/07 01:27:56;;;;;;;;;;;;;;;18.35;52.77;99820.06;5114306;28;19923;-78
2023/06/07 01:30:23;;;;;;;;;;;;;;;18.34;53.51;99811.22;5114447;28;20307;-78
2023/06/07 01:32:49;;;;;;;;;;;;;;;18.36;53.55;99811.00;5114212;28;19912;-78
2023/06/07 01:35:14;;;;;;;;;;;;;;;18.32;54.24;99809.81;5114122;28;19916;-78
2023/06/07 01:37:41;;;;;;;;;;;;;;;18.34;54.91;99813.09;5115206;28;19965;-77
2023/06/07 01:40:08;;;;;;;;;;;;;;;18.40;54.13;99807.66;5116482;28;19951;-77
2023/06/07 01:42:34;;;;;;;;;;;;;;;18.35;53.67;99807.50;5114483;28;20419;-78
2023/06/07 01:45:00;;;;;;;;;;;;;;;18.26;56.29;99805.34;5114022;28;20384;-79
2023/06/07 01:47:25;;;;;;;;;;;;;;;18.30;56.25;99814.56;5113909;28;19912;-78
2023/06/07 01:49:51;;;;;;;;;;;;;;;18.37;55.81;99808.13;5114181;28;20439;-78
2023/06/07 01:52:16;;;;;;;;;;;;;;;18.40;57.10;99818.38;5114072;28;19916;-79
2023/06/07 01:54:42;;;;;;;;;;;;;;;18.45;55.76;99798.16;5114071;28;19923;-77
2023/06/07 01:57:11;;;;;;;;;;;;;;;18.37;57.26;99796.59;5113944;28;19947;-79
2023/06/07 02:00:06;;;;;;;;;;;;;;;18.45;54.20;99806.19;5113836;28;19920;-79
2023/06/07 02:02:42;;;;;;;;;;;;;;;18.47;56.19;99802.25;5104855;28;19914;-79
2023/06/07 02:05:11;;;;;;;;;;;;;;;18.47;55.17;99799.56;5113872;28;19919;-79
2023/06/07 02:07:43;;;;;;;;;;;;;;;18.47;56.35;99804.09;5113479;28;19924;-79
2023/06/07 02:10:09;;;;;;;;;;;;;;;18.45;56.57;99809.66;5113564;28;19912;-79
2023/06/07 02:12:36;;;;;;;;;;;;;;;18.45;59.68;99808.84;5113492;28;19998;-79
2023/06/07 02:15:01;;;;;;;;;;;;;;;18.49;57.28;99818.88;5112107;28;19916;-79
2023/06/07 02:17:28;;;;;;;;;;;;;;;18.45;59.09;99811.53;5113788;28;19920;-80
2023/06/07 02:19:53;;;;;;;;;;;;;;;18.45;56.20;99822.22;5112174;28;19916;-79
2023/06/07 02:22:18;;;;;;;;;;;;;;;18.41;57.62;99816.50;5113527;28;19915;-79
2023/06/07 02:24:44;;;;;;;;;;;;;;;18.41;58.47;99828.00;5112151;28;19998;-80
2023/06/07 02:27:09;;;;;;;;;;;;;;;18.37;57.36;99826.00;5113358;28;20403;-78
2023/06/07 02:29:35;;;;;;;;;;;;;;;18.37;57.94;99834.03;5111902;28;19919;-78
2023/06/07 02:32:00;;;;;;;;;;;;;;;18.30;57.71;99830.59;5113173;28;19912;-78
2023/06/07 02:34:26;;;;;;;;;;;;;;;18.19;56.72;99826.81;5113046;28;19919;-78
2023/06/07 02:36:52;;;;;;;;;;;;;;;18.16;56.93;99821.91;5113025;28;19912;-78
2023/06/07 02:39:17;;;;;;;;;;;;;;;18.13;60.64;99829.53;5112995;28;19915;-78
2023/06/07 02:41:42;;;;;;;;;;;;;;;18.12;59.16;99827.91;5113132;28;19912;-78
2023/06/07 02:44:08;;;;;;;;;;;;;;;18.10;61.62;99826.28;5111893;28;19919;-78
2023/06/07 02:46:33;;;;;;;;;;;;;;;18.14;59.66;99820.50;5112798;28;19965;-79
2023/06/07 02:48:58;;;;;;;;;;;;;;;18.18;58.56;99824.34;5113183;28;19915;-78
2023/06/07 02:51:23;;;;;;;;;;;;;;;18.20;58.82;99824.94;5112991;28;19912;-78
2023/06/07 02:53:49;;;;;;;;;;;;;;;18.21;58.72;99822.06;5112002;28;19916;-78
2023/06/07 02:56:14;;;;;;;;;;;;;;;18.22;59.80;99821.03;5112960;28;20320;-78
2023/06/07 02:58:39;;;;;;;;;;;;;;;18.24;60.00;99823.47;5112678;28;19915;-79
2023/06/07 03:01:07;;;;;;;;;;;;;;;18.22;60.83;99821.03;5112606;28;19912;-79
2023/06/07 03:03:34;;;;;;;;;;;;;;;18.14;60.23;99823.97;5112868;28;19919;-78
2023/06/07 03:06:00;;;;;;;;;;;;;;;18.07;61.58;99823.22;5111274;28;20308;-79
2023/06/07 03:08:25;;;;;;;;;;;;;;;18.06;58.67;99830.44;5112578;28;19911;-78
2023/06/07 03:10:50;;;;;;;;;;;;;;;18.08;61.94;99828.34;5112598;28;19912;-79
2023/06/07 03:13:15;;;;;;;;;;;;;;;18.12;62.42;99819.91;5111249;28;19916;-78
2023/06/07 03:15:42;;;;;;;;;;;;;;;18.19;59.73;99817.97;5112466;28;20404;-78
2023/06/07 03:18:08;;;;;;;;;;;;;;;18.10;60.84;99823.59;5112513;28;19912;-78
2023/06/07 03:20:34;;;;;;;;;;;;;;;18.05;59.88;99817.28;5112505;28;19934;-78
2023/06/07 03:23:00;;;;;;;;;;;;;;;18.05;61.71;99819.94;5112222;28;19918;-79
2023/06/07 03:25:25;;;;;;;;;;;;;;;18.10;60.66;99820.13;5112327;28;19911;-79
2023/06/07 03:27:50;;;;;;;;;;;;;;;18.15;61.09;99822.13;5112155;28;19926;-78
2023/06/07 03:30:16;;;;;;;;;;;;;;;18.19;63.18;99823.31;5112301;28;20432;-78
2023/06/07 03:32:41;;;;;;;;;;;;;;;18.23;62.39;99829.84;5110951;28;20342;-78
2023/06/07 03:35:07;;;;;;;;;;;;;;;18.21;64.15;99823.91;5112281;28;20002;-78
2023/06/07 03:37:32;;;;;;;;;;;;;;;18.20;61.91;99816.94;5112354;28;20371;-78
2023/06/07 03:39:57;;;;;;;;;;;;;;;18.25;60.61;99827.78;5112182;28;20014;-78
2023/06/07 03:42:23;;;;;;;;;;;;;;;18.29;61.76;99831.66;5112042;28;19919;-78
2023/06/07 03:44:48;;;;;;;;;;;;;;;18.31;59.14;99826.91;5110805;28;19912;-78
2023/06/07 03:47:13;;;;;;;;;;;;;;;18.28;61.10;99830.81;5112092;28;19912;-78
2023/06/07 03:49:38;;;;;;;;;;;;;;;18.28;62.46;99828.16;5111030;28;20316;-79
2023/06/07 03:52:04;;;;;;;;;;;;;;;18.24;62.21;99828.81;5112220;28;19915;-78
2023/06/07 03:54:29;;;;;;;;;;;;;;;18.26;61.27;99830.22;5112017;28;20315;-78
2023/06/07 03:56:56;;;;;;;;;;;;;;;18.21;61.03;99827.41;5113793;28;19918;-79
2023/06/07 03:59:23;;;;;;;;;;;;;;;18.22;61.66;99834.38;5116215;28;19912;-78
2023/06/07 04:01:49;;;;;;;;;;;;;;;18.27;61.74;99837.22;5116108;28;19920;-80
2023/06/07 04:04:14;;;;;;;;;;;;;;;18.26;59.83;99832.09;5116181;28;19911;-78
2023/06/07 04:06:39;;;;;;;;;;;;;;;18.30;61.65;99833.28;5116096;28;19994;-78
2023/06/07 04:09:06;;;;;;;;;;;;;;;18.37;63.09;99834.03;5114776;28;19991;-79
2023/06/07 04:11:32;;;;;;;;;;;;;;;18.39;62.11;99834.63;5116137;28;20277;-78
2023/06/07 04:13:57;;;;;;;;;;;;;;;18.40;60.67;99836.25;5114528;28;19923;-79
2023/06/07 04:16:22;;;;;;;;;;;;;;;18.42;60.91;99839.53;5115992;28;19920;-78
2023/06/07 04:18:48;;;;;;;;;;;;;;;18.43;59.53;99838.50;5115668;28;19912;-79
2023/06/07 04:21:13;;;;;;;;;;;;;;;18.47;60.64;99844.22;5115739;28;19939;-79
2023/06/07 04:23:39;;;;;;;;;;;;;;;18.50;60.92;99835.75;5115965;28;20328;-79
2023/06/07 04:26:06;;;;;;;;;;;;;;;18.49;61.53;99834.94;5115711;28;19991;-79
2023/06/07 04:28:32;;;;;;;;;;;;;;;18.45;61.67;99839.09;5115850;28;19920;-78
2023/06/07 04:30:58;;;;;;;;;;;;;;;18.45;60.05;99838.25;5114688;28;19919;-79
2023/06/07 04:33:24;;;;;;;;;;;;;;;18.44;60.01;99837.44;5114668;28;19912;-78
2023/06/07 04:35:57;;;;;;;;;;;;;;;18.44;62.92;99845.47;5116087;28;19951;-79
2023/06/07 04:38:23;;;;;;;;;;;;;;;18.49;59.93;99842.94;5127304;28;19915;-77
2023/06/07 04:40:49;;;;;;;;;;;;;;;18.59;59.24;99834.44;5132839;28;19912;-77
2023/06/07 04:43:18;;;;;;;;;;;;;;;18.67;60.64;99842.19;5117091;28;20289;-79
2023/06/07 04:45:44;;;;;;;;;;;;;;;18.74;60.74;99842.94;5114054;28;20006;-79
2023/06/07 04:48:13;;;;;;;;;;;;;;;18.77;60.96;99841.66;5115249;28;19915;-79
2023/06/07 04:50:41;;;;;;;;;;;;;;;18.79;57.98;99844.94;5115253;28;20464;-79
2023/06/07 04:53:06;;;;;;;;;;;;;;;18.74;59.83;99842.94;5115015;28;19915;-79
2023/06/07 04:55:34;;;;;;;;;;;;;;;18.81;59.03;99840.19;5114929;28;19984;-79
2023/06/07 04:57:59;;;;;;;;;;;;;;;18.85;59.62;99844.03;5114799;28;19961;-78
2023/06/07 05:00:25;;;;;;;;;;;;;;;18.81;59.24;99841.00;5114975;28;19912;-77
2023/06/07 05:02:52;;;;;;;;;;;;;;;18.76;60.56;99838.19;5115344;28;19912;-78
2023/06/07 05:05:17;;;;;;;;;;;;;;;18.85;57.51;99830.66;5116495;28;19916;-78
2023/06/07 05:07:44;;;;;;;;;;;;;;;18.93;59.03;99841.06;5114794;28;19919;-78
2023/06/07 05:10:09;;;;;;;;;;;;;;;18.99;58.11;99840.16;5114615;28;19912;-78
2023/06/07 05:12:35;;;;;;;;;;;;;;;18.94;59.43;99840.00;5114817;28;19912;-79
2023/06/07 05:15:00;;;;;;;;;;;;;;;18.98;59.51;99842.00;5114708;28;19922;-78
2023/06/07 05:17:28;;;;;;;;;;;;;;;18.96;59.52;99846.78;5115026;28;19923;-77
2023/06/07 05:19:54;;;;;;;;;;;;;;;18.78;59.55;99838.78;5114919;28;19947;-79
2023/06/07 05:22:19;;;;;;;;;;;;;;;18.82;59.00;99844.50;5114432;28;19912;-78
2023/06/07 05:24:45;;;;;;;;;;;;;;;18.90;59.06;99849.53;5114235;28;19911;-78
2023/06/07 05:27:11;;;;;;;;;;;;;;;19.02;58.11;99845.06;5114270;28;20388;-78
2023/06/07 05:29:36;;;;;;;;;;;;;;;19.12;58.47;99850.69;5113968;28;19927;-78
2023/06/07 05:32:01;;;;;;;;;;;;;;;19.21;57.80;99852.00;5114308;28;19912;-78
2023/06/07 05:34:26;;;;;;;;;;;;;;;19.29;58.34;99857.03;5114271;28;19916;-79
2023/06/07 05:36:52;;;;;;;;;;;;;;;19.35;58.13;99853.50;5114365;28;19935;-78
2023/06/07 05:39:17;;;;;;;;;;;;;;;19.41;58.18;99849.09;5114314;28;20007;-78
2023/06/07 05:41:42;;;;;;;;;;;;;;;19.43;56.99;99844.31;5114026;28;19912;-78
2023/06/07 05:44:07;;;;;;;;;;;;;;;19.44;57.98;99856.66;5114046;28;19911;-79
2023/06/07 05:46:33;;;;;;;;;;;;;;;19.38;57.28;99860.25;5113888;28;19969;-79
2023/06/07 05:48:58;;;;;;;;;;;;;;;19.35;58.11;99861.53;5114119;28;20464;-79
2023/06/07 05:51:23;;;;;;;;;;;;;;;19.32;57.46;99855.78;5114120;28;19968;-78
2023/06/07 05:53:48;;;;;;;;;;;;;;;19.27;58.87;99850.28;5113720;28;20002;-79
2023/06/07 05:56:16;;;;;;;;;;;;;;;19.30;58.19;99845.28;5112540;28;19912;-78
2023/06/07 05:58:43;;;;;;;;;;;;;;;19.37;58.65;99842.56;5113585;28;19919;-78
2023/06/07 06:01:11;;;;;;;;;;;;;;;19.31;59.00;99846.94;5112392;28;19916;-79
2023/06/07 06:03:36;;;;;;;;;;;;;;;19.29;59.49;99845.53;5113760;28;19916;-79
2023/06/07 06:06:11;;;;;;;;;;;;;;;19.40;57.81;99852.00;5113842;28;19916;-79
2023/06/07 06:08:36;;;;;;;;;;;;;;;19.47;57.87;99861.56;5113640;28;20447;-79
2023/06/07 06:11:01;;;;;;;;;;;;;;;19.41;58.81;99859.78;5112288;28;19911;-79
2023/06/07 06:13:30;;;;;;;;;;;;;;;19.51;57.35;99854.69;5111785;28;20431;-79
2023/06/07 06:15:55;;;;;;;;;;;;;;;19.61;58.08;99860.34;5113278;28;19962;-78
2023/06/07 06:18:20;;;;;;;;;;;;;;;19.67;57.70;99853.25;5113476;28;19912;-78
2023/06/07 06:20:46;;;;;;;;;;;;;;;19.74;57.56;99853.97;5107284;28;20010;-78
2023/06/07 06:23:11;;;;;;;;;;;;;;;19.83;56.33;99854.44;5127841;27;19911;-78
2023/06/07 06:25:37;;;;;;;;;;;;;;;19.82;56.48;99852.81;5113011;28;19930;-79
2023/06/07 06:28:02;;;;;;;;;;;;;;;19.87;57.28;99848.41;5112949;28;20028;-79
2023/06/07 06:30:27;;;;;;;;;;;;;;;19.95;56.31;99850.75;5117102;27;20029;-79
2023/06/07 06:32:53;;;;;;;;;;;;;;;20.01;56.98;99859.72;5128109;27;19915;-78
2023/06/07 06:35:18;;;;;;;;;;;;;;;20.07;56.68;99864.19;5112911;27;20452;-79
2023/06/07 06:37:44;;;;;;;;;;;;;;;20.09;56.17;99869.31;5122032;27;19972;-78
2023/06/07 06:40:09;;;;;;;;;;;;;;;20.11;56.16;99865.34;5129615;27;19964;-78
2023/06/07 06:42:35;;;;;;;;;;;;;;;20.21;56.12;99870.13;5130544;27;20296;-78
2023/06/07 06:45:00;;;;;;;;;;;;;;;20.28;55.60;99858.25;5132203;27;20481;-80
2023/06/07 06:47:25;;;;;;;;;;;;;;;20.38;55.32;99865.69;5113887;27;19920;-79
2023/06/07 06:49:53;;;;;;;;;;;;;;;20.42;55.58;99864.22;5112887;28;20367;-79
2023/06/07 06:52:18;;;;;;;;;;;;;;;20.45;55.66;99857.56;5113959;27;19925;-79
2023/06/07 06:54:43;;;;;;;;;;;;;;;20.43;56.32;99860.47;5126811;27;19919;-79
2023/06/07 06:57:09;;;;;;;;;;;;;;;20.40;55.15;99860.13;5133156;27;19925;-80
2023/06/07 06:59:35;;;;;;;;;;;;;;;20.41;55.20;99864.44;5117875;27;19916;-78
2023/06/07 07:02:01;;;;;;;;;;;;;;;20.40;54.75;99860.94;5091668;28;19912;-79
2023/06/07 07:04:26;;;;;;;;;;;;;;;20.38;55.59;99854.16;5092179;28;19930;-78
2023/06/07 07:06:51;;;;;;;;;;;;;;;20.39;55.30;99853.09;5091796;28;19955;-78
2023/06/07 07:09:16;;;;;;;;;;;;;;;20.37;55.78;99852.53;5100033;27;19951;-79
2023/06/07 07:11:42;;;;;;;;;;;;;;;20.41;56.07;99857.22;5109132;27;19938;-78
2023/06/07 07:14:07;;;;;;;;;;;;;;;20.52;55.42;99858.25;5118306;27;20361;-79
2023/06/07 07:16:32;;;;;;;;;;;;;;;20.57;54.98;99855.69;5104412;27;19916;-79
2023/06/07 07:18:58;;;;;;;;;;;;;;;20.65;54.57;99847.28;5108910;27;19916;-79
2023/06/07 07:21:23;;;;;;;;;;;;;;;20.76;54.73;99853.66;5105642;27;19922;-79
2023/06/07 07:23:48;;;;;;;;;;;;;;;20.87;54.13;99844.78;5101567;28;19916;-79
2023/06/07 07:26:13;;;;;;;;;;;;;;;20.92;54.69;99840.34;5091485;28;20381;-78
2023/06/07 07:28:39;;;;;;;;;;;;;;;20.95;53.59;99844.41;5092052;28;19920;-79
2023/06/07 07:31:04;;;;;;;;;;;;;;;20.93;54.09;99839.28;5107057;27;19916;-79
2023/06/07 07:33:29;;;;;;;;;;;;;;;20.97;53.17;99849.56;5111280;28;19915;-79
2023/06/07 07:35:54;;;;;;;;;;;;;;;20.86;53.76;99835.13;5113909;27;19994;-79
2023/06/07 07:38:20;;;;;;;;;;;;;;;20.91;53.93;99838.72;5122431;28;19908;-78
2023/06/07 07:40:45;;;;;;;;;;;;;;;20.98;53.78;99833.22;5125408;28;19980;-77
2023/06/07 07:43:11;;;;;;;;;;;;;;;21.01;54.33;99832.72;5129280;28;19912;-77
2023/06/07 07:45:36;;;;;;;;;;;;;;;21.14;53.28;99834.31;5114477;28;20303;-77
2023/06/07 07:48:02;;;;;;;;;;;;;;;21.22;53.20;99844.66;5112417;28;19911;-78
2023/06/07 07:50:27;;;;;;;;;;;;;;;21.29;53.41;99842.69;5112480;28;19919;-78
2023/06/07 07:52:53;;;;;;;;;;;;;;;21.31;52.91;99837.06;5114443;28;19922;-78
2023/06/07 07:55:18;;;;;;;;;;;;;;;21.33;53.21;99833.09;5116717;28;19926;-79
2023/06/07 07:57:44;;;;;;;;;;;;;;;21.33;52.43;99835.78;5111946;28;19915;-78
2023/06/07 08:00:10;;;;;;;;;;;;;;;21.38;52.63;99835.88;5113872;28;19923;-79
2023/06/07 08:02:36;;;;;;;;;;;;;;;21.43;52.60;99827.91;5133054;28;19917;-77
2023/06/07 08:05:05;;;;;;;;;;;;;;;21.38;53.16;99835.03;5127251;28;19936;-79
2023/06/07 08:07:31;;;;;;;;;;;;;;;21.47;52.78;99829.03;5099580;28;19916;-76
2023/06/07 08:09:56;;;;;;;;;;;;;;;21.37;52.99;99826.19;5091919;28;19970;-77
2023/06/07 08:12:22;;;;;;;;;;;;;;;21.47;52.82;99820.16;5111386;28;20412;-78
2023/06/07 08:14:47;;;;;;;;;;;;;;;21.53;52.12;99830.75;5114160;28;19919;-78
2023/06/07 08:17:12;;;;;;;;;;;;;;;21.65;52.31;99833.41;5127774;28;20304;-78
2023/06/07 08:19:37;;;;;;;;;;;;;;;21.76;52.05;99834.38;5132571;28;19912;-78
2023/06/07 08:22:03;;;;;;;;;;;;;;;21.79;52.00;99828.53;5117675;28;20003;-78
2023/06/07 08:24:28;;;;;;;;;;;;;;;21.93;52.03;99824.44;5126782;28;20387;-78
2023/06/07 08:26:53;;;;;;;;;;;;;;;21.93;51.73;99834.38;5119155;28;19916;-79
2023/06/07 08:29:19;;;;;;;;;;;;;;;22.00;51.44;99825.09;5111847;28;19920;-78
2023/06/07 08:31:44;;;;;;;;;;;;;;;22.16;51.26;99826.16;5112976;28;20357;-78
2023/06/07 08:34:10;;;;;;;;;;;;;;;22.34;50.66;99814.34;5111803;28;19923;-78
2023/06/07 08:36:39;;;;;;;;;;;;;;;22.47;50.75;99812.09;5115390;28;19919;-79
2023/06/07 08:39:04;;;;;;;;;;;;;;;22.57;50.46;99808.72;5132133;28;20411;-77
2023/06/07 08:41:30;;;;;;;;;;;;;;;22.61;50.37;99814.41;5128080;28;19958;-78
2023/06/07 08:43:55;;;;;;;;;;;;;;;22.74;49.71;99812.16;5122489;27;19923;-78
2023/06/07 08:46:21;;;;;;;;;;;;;;;22.86;49.40;99811.25;5119527;27;19998;-77
2023/06/07 08:48:51;;;;;;;;;;;;;;;22.98;49.16;99811.94;5135681;27;19919;-77
2023/06/07 08:51:17;;;;;;;;;;;;;;;23.17;48.90;99796.25;5135735;27;19914;-78
2023/06/07 08:53:48;;;;;;;;;;;;;;;23.24;48.80;99803.06;5116214;27;19927;-78
2023/06/07 08:56:15;;;;;;;;;;;;;;;23.39;48.39;99802.41;5119891;27;19915;-78
2023/06/07 08:58:40;;;;;;;;;;;;;;;23.51;48.30;99800.34;5127345;27;19923;-78
2023/06/07 09:01:07;;;;;;;;;;;;;;;23.68;47.89;99805.63;5115004;28;20041;-78
2023/06/07 09:03:33;;;;;;;;;;;;;;;23.84;47.84;99804.72;5114909;28;19912;-78
2023/06/07 09:05:58;;;;;;;;;;;;;;;23.95;46.55;99798.31;5115296;28;19918;-78
2023/06/07 09:08:24;;;;;;;;;;;;;;;24.14;47.02;99793.31;5114745;28;19912;-78
2023/06/07 09:10:49;;;;;;;;;;;;;;;24.31;46.65;99802.06;5109811;28;19915;-78
2023/06/07 09:13:21;;;;;;;;;;;;;;;24.47;46.81;99796.75;5124166;27;19923;-77
2023/06/07 09:15:49;;;;;;;;;;;;;;;24.66;46.51;99798.75;5120799;27;19920;-78
2023/06/07 09:18:14;;;;;;;;;;;;;;;24.94;46.05;99797.50;5121755;27;19911;-79
2023/06/07 09:20:40;;;;;;;;;;;;;;;25.18;45.05;99789.75;5135517;27;19918;-77
2023/06/07 09:23:13;;;;;;;;;;;;;;;25.32;45.04;99793.56;5108391;27;19955;-79
2023/06/07 09:25:39;;;;;;;;;;;;;;;25.53;44.49;99788.19;5103001;27;19923;-78
2023/06/07 09:28:13;;;;;;;;;;;;;;;25.69;44.56;99789.84;5114486;28;19919;-78
2023/06/07 09:30:54;;;;;;;;;;;;;;;25.77;44.35;99785.75;5113342;28;20323;-78
2023/06/07 09:33:29;;;;;;;;;;;;;;;25.83;44.00;99776.56;5114602;28;19911;-78
2023/06/07 09:36:04;;;;;;;;;;;;;;;25.87;44.31;99778.44;5121991;27;19916;-77
2023/06/07 09:38:29;;;;;;;;;;;;;;;26.11;43.68;99783.31;5133801;27;19915;-76
2023/06/07 09:40:59;;;;;;;;;;;;;;;26.31;43.00;99772.41;5135111;27;19937;-78
2023/06/07 09:43:25;;;;;;;;;;;;;;;26.47;42.78;99774.00;5119875;27;19933;-79
2023/06/07 09:45:56;;;;;;;;;;;;;;;26.37;42.32;99767.81;5114413;28;20414;-79
2023/06/07 09:48:21;;;;;;;;;;;;;;;26.19;43.27;99766.50;5114523;28;19916;-78
2023/06/07 09:50:56;;;;;;;;;;;;;;;26.13;43.30;99767.59;5114481;27;20372;-78
2023/06/07 09:53:21;;;;;;;;;;;;;;;26.34;42.90;99766.47;5104679;27;19915;-77
2023/06/07 09:55:47;;;;;;;;;;;;;;;26.58;42.20;99763.94;5134186;27;19915;-78
2023/06/07 09:58:22;;;;;;;;;;;;;;;26.50;42.71;99762.63;5132713;27;20039;-78
2023/06/07 10:00:48;;;;;;;;;;;;;;;26.50;41.07;99764.53;5134612;27;19951;-78
2023/06/07 10:03:13;;;;;;;;;;;;;;;26.57;41.21;99754.19;5134476;27;19915;-78
2023/06/07 10:05:39;;;;;;;;;;;;;;;26.56;41.09;99758.81;5133512;27;19911;-77
2023/06/07 10:08:05;;;;;;;;;;;;;;;26.50;40.89;99753.69;5134375;27;19911;-77
2023/06/07 10:10:32;;;;;;;;;;;;;;;26.76;40.64;99754.41;5134171;27;20399;-78
2023/06/07 10:12:58;;;;;;;;;;;;;;;27.10;38.62;99754.50;5134417;27;19919;-76
2023/06/07 10:15:24;;;;;;;;;;;;;;;27.42;38.40;99751.28;5133601;27;19915;-78
2023/06/07 10:17:54;;;;;;;;;;;;;;;27.61;38.86;99754.97;5132064;27;19923;-78
2023/06/07 10:20:26;;;;;;;;;;;;;;;27.88;37.87;99753.63;5133275;27;19912;-78
2023/06/07 10:22:56;;;;;;;;;;;;;;;28.02;38.26;99758.06;5133536;27;20003;-78
2023/06/07 10:25:23;;;;;;;;;;;;;;;28.03;36.71;99756.16;5132270;27;20380;-78
2023/06/07 10:28:02;;;;;;;;;;;;;;;27.96;36.87;99753.81;5133313;27;20009;-79
2023/06/07 10:30:31;;;;;;;;;;;;;;;28.01;36.06;99756.47;5133483;27;19912;-78
2023/06/07 10:32:57;;;;;;;;;;;;;;;28.17;36.72;99755.19;5133354;27;19912;-78
2023/06/07 10:35:23;;;;;;;;;;;;;;;28.30;36.06;99752.94;5131956;27;19915;-78
2023/06/07 10:37:50;;;;;;;;;;;;;;;28.36;36.20;99752.59;5131885;27;19911;-78
2023/06/07 10:40:16;;;;;;;;;;;;;;;28.45;37.40;99758.19;5131922;27;19925;-78
2023/06/07 10:42:43;;;;;;;;;;;;;;;28.45;35.95;99752.75;5131711;27;20002;-77
2023/06/07 10:45:14;;;;;;;;;;;;;;;28.48;36.79;99754.88;5132909;27;19960;-76
2023/06/07 10:47:40;;;;;;;;;;;;;;;28.48;35.35;99752.97;5133130;27;19918;-78
2023/06/07 10:50:06;;;;;;;;;;;;;;;28.51;35.99;99756.22;5133254;27;19911;-79
2023/06/07 10:52:31;;;;;;;;;;;;;;;28.54;35.82;99750.19;5133216;27;20399;-79
2023/06/07 10:54:56;;;;;;;;;;;;;;;28.59;36.14;99750.13;5132825;27;19969;-76
2023/06/07 10:57:30;;;;;;;;;;;;;;;28.64;36.10;99744.63;5133088;27;19955;-78
2023/06/07 11:00:15;;;;;;;;;;;;;;;28.61;37.55;99740.59;5133137;27;19911;-78
2023/06/07 11:02:41;;;;;;;;;;;;;;;28.64;37.61;99745.44;5131374;27;19918;-79
2023/06/07 11:05:06;;;;;;;;;;;;;;;28.65;35.96;99740.81;5132895;27;19915;-76
2023/06/07 11:07:31;;;;;;;;;;;;;;;28.61;36.49;99748.75;5132527;27;19999;-79
2023/06/07 11:10:00;;;;;;;;;;;;;;;28.62;36.76;99733.25;5132957;27;19916;-76
2023/06/07 11:12:46;;;;;;;;;;;;;;;28.65;35.54;99729.94;5132759;27;20381;-77
2023/06/07 11:15:17;;;;;;;;;;;;;;;28.92;36.05;99732.03;5132722;27;19915;-78
2023/06/07 11:17:53;;;;;;;;;;;;;;;29.05;35.56;99729.41;5128630;27;20407;-78
2023/06/07 11:20:40;;;;;;;;;;;;;;;29.10;35.75;99732.03;5113300;27;20412;-77
2023/06/07 11:23:19;;;;;;;;;;;;;;;28.96;35.36;99730.34;5112904;27;20018;-79
2023/06/07 11:25:44;;;;;;;;;;;;;;;29.16;35.54;99715.66;5125173;27;19915;-78
2023/06/07 11:28:10;;;;;;;;;;;;;;;29.33;35.87;99724.88;5123033;27;20418;-76
2023/06/07 11:30:36;;;;;;;;;;;;;;;29.50;35.10;99720.81;5132452;27;19968;-77
2023/06/07 11:33:03;;;;;;;;;;;;;;;29.63;34.01;99709.97;5131242;27;19904;-76
2023/06/07 11:35:30;;;;;;;;;;;;;;;29.75;35.31;99706.78;5132457;27;19958;-78
2023/06/07 11:37:55;;;;;;;;;;;;;;;29.86;34.20;99710.13;5131579;27;19918;-78
2023/06/07 11:40:21;;;;;;;;;;;;;;;29.63;34.81;99704.53;5132711;28;19915;-77
2023/06/07 11:42:46;;;;;;;;;;;;;;;29.66;33.86;99701.19;5132984;28;20359;-79
2023/06/07 11:45:12;;;;;;;;;;;;;;;29.81;32.55;99705.59;5132653;28;20349;-76
2023/06/07 11:47:38;;;;;;;;;;;;;;;29.82;33.88;99695.50;5132585;28;19912;-77
2023/06/07 11:50:03;;;;;;;;;;;;;;;29.91;33.24;99701.84;5124339;28;20413;-78
2023/06/07 11:52:28;;;;;;;;;;;;;;;29.62;32.94;99632.16;5113203;28;20387;-77
2023/06/07 11:54:54;;;;;;;;;;;;;;;30.04;32.91;99696.44;5128155;28;19923;-77
2023/06/07 11:57:21;;;;;;;;;;;;;;;30.13;32.94;99693.00;5130966;28;20379;-77
2023/06/07 11:59:46;;;;;;;;;;;;;;;29.83;31.71;99691.66;5130903;28;20285;-79
2023/06/07 12:02:14;;;;;;;;;;;;;;;29.86;32.07;99691.06;5120065;28;19933;-77
2023/06/07 12:04:44;;;;;;;;;;;;;;;30.08;32.73;99682.22;5111625;28;19918;-78
2023/06/07 12:07:19;;;;;;;;;;;;;;;30.27;33.19;99677.47;5111565;28;20017;-76
2023/06/07 12:09:45;;;;;;;;;;;;;;;30.30;32.51;99682.28;5111864;28;19970;-76
2023/06/07 12:12:14;;;;;;;;;;;;;;;30.58;31.74;99666.72;5126234;28;20340;-78
2023/06/07 12:14:40;;;;;;;;;;;;;;;30.79;30.33;99667.09;5131735;28;19926;-76
2023/06/07 12:17:06;;;;;;;;;;;;;;;30.91;31.93;99664.59;5121478;28;19915;-77
2023/06/07 12:19:31;;;;;;;;;;;;;;;30.98;30.90;99662.25;5115078;28;20303;-78
2023/06/07 12:22:05;;;;;;;;;;;;;;;30.95;30.54;99665.59;5115442;28;19912;-79
2023/06/07 12:24:30;;;;;;;;;;;;;;;30.90;31.25;99665.72;5115525;27;20014;-76
2023/06/07 12:26:56;;;;;;;;;;;;;;;30.88;30.15;99657.84;5116242;27;20403;-77
2023/06/07 12:29:29;;;;;;;;;;;;;;;30.74;31.75;99648.94;5116216;27;19977;-77
2023/06/07 12:31:55;;;;;;;;;;;;;;;30.63;30.85;99650.28;5109616;27;20011;-78
2023/06/07 12:34:26;;;;;;;;;;;;;;;30.75;31.47;99647.81;5114970;28;19916;-77
2023/06/07 12:36:52;;;;;;;;;;;;;;;30.76;31.50;99641.25;5114635;28;19912;-78
2023/06/07 12:39:21;;;;;;;;;;;;;;;30.82;31.69;99639.19;5113624;28;20375;-78
2023/06/07 12:41:46;;;;;;;;;;;;;;;30.81;30.46;99643.84;5114990;28;19915;-78
2023/06/07 12:44:12;;;;;;;;;;;;;;;30.75;30.88;99636.91;5115111;28;19919;-77